createdAt,value
2023-02-17T00:00:13.815Z,8.80
2023-02-17T00:02:43.708Z,8.76
2023-02-17T00:05:12.160Z,8.71
2023-02-17T00:07:40.617Z,8.72
2023-02-17T00:10:10.317Z,8.80
2023-02-17T00:12:38.431Z,8.75
2023-02-17T00:15:07.690Z,8.71
2023-02-17T00:17:36.408Z,8.89
2023-02-17T00:20:08.378Z,8.74
2023-02-17T00:22:37.349Z,8.68
2023-02-17T00:25:06.289Z,8.72
2023-02-17T00:27:34.494Z,8.69
2023-02-17T00:30:02.918Z,8.56
2023-02-17T00:32:31.256Z,8.57
2023-02-17T00:34:59.787Z,8.61
2023-02-17T00:37:29.362Z,8.58
2023-02-17T00:39:57.614Z,8.54
2023-02-17T00:42:26.104Z,8.54
2023-02-17T00:45:00.461Z,8.55
2023-02-17T00:47:28.703Z,8.57
2023-02-17T00:49:57.110Z,8.61
2023-02-17T00:52:29.750Z,8.61
2023-02-17T00:54:57.905Z,8.57
2023-02-17T00:57:27.398Z,8.60
2023-02-17T00:59:56.696Z,8.65
2023-02-17T01:02:24.936Z,8.59
2023-02-17T01:04:57.656Z,8.57
2023-02-17T01:07:25.974Z,8.56
2023-02-17T01:09:55.602Z,8.53
2023-02-17T01:12:23.848Z,8.53
2023-02-17T01:14:53.336Z,8.51
2023-02-17T01:17:21.675Z,8.51
2023-02-17T01:19:50.259Z,8.52
2023-02-17T01:22:18.509Z,8.56
2023-02-17T01:24:47.357Z,8.65
2023-02-17T01:27:17.108Z,8.65
2023-02-17T01:29:46.164Z,8.68
2023-02-17T01:32:15.445Z,8.70
2023-02-17T01:34:45.635Z,8.66
2023-02-17T01:37:16.937Z,8.66
2023-02-17T01:39:45.681Z,8.60
2023-02-17T01:42:20.100Z,8.58
2023-02-17T01:45:27.869Z,8.53
2023-02-17T01:48:00.860Z,8.54
2023-02-17T01:50:33.969Z,8.54
2023-02-17T01:53:05.051Z,8.73
2023-02-17T01:55:36.698Z,8.68
2023-02-17T01:58:09.916Z,8.62
2023-02-17T02:00:38.998Z,8.57
2023-02-17T02:03:12.863Z,8.58
2023-02-17T02:05:42.972Z,8.53
2023-02-17T02:08:12.108Z,8.52
2023-02-17T02:10:40.555Z,8.53
2023-02-17T02:13:10.804Z,8.51
2023-02-17T02:15:44.762Z,8.50
2023-02-17T02:18:28.335Z,8.47
2023-02-17T02:21:47.124Z,8.46
2023-02-17T02:24:22.983Z,8.50
2023-02-17T02:27:08.131Z,8.59
2023-02-17T02:29:57.806Z,8.56
2023-02-17T02:32:40.786Z,8.52
2023-02-17T02:35:16.513Z,8.53
2023-02-17T02:37:50.215Z,8.56
2023-02-17T02:40:23.691Z,8.62
2023-02-17T02:42:52.219Z,8.63
2023-02-17T02:45:21.488Z,8.59
2023-02-17T02:47:52.937Z,8.56
2023-02-17T02:50:35.188Z,8.53
2023-02-17T02:53:36.318Z,8.54
2023-02-17T02:56:17.568Z,8.53
2023-02-17T02:58:55.672Z,8.60
2023-02-17T03:01:36.302Z,8.68
2023-02-17T03:04:13.603Z,8.59
2023-02-17T03:06:49.089Z,8.60
2023-02-17T03:09:22.824Z,8.66
2023-02-17T03:11:52.924Z,8.65
2023-02-17T03:14:23.441Z,8.55
2023-02-17T03:16:51.957Z,8.60
2023-02-17T03:19:24.908Z,8.57
2023-02-17T03:21:58.143Z,8.60
2023-02-17T03:24:26.976Z,8.52
2023-02-17T03:26:55.475Z,8.52
2023-02-17T03:29:23.726Z,8.55
2023-02-17T03:31:52.150Z,8.61
2023-02-17T03:34:22.390Z,8.55
2023-02-17T03:36:50.556Z,8.56
2023-02-17T03:39:18.969Z,8.54
2023-02-17T03:41:50.474Z,8.51
2023-02-17T03:44:19.085Z,8.47
2023-02-17T03:46:47.734Z,8.43
2023-02-17T03:49:17.320Z,8.52
2023-02-17T03:51:47.480Z,8.48
2023-02-17T03:54:16.043Z,8.48
2023-02-17T03:56:44.414Z,8.53
2023-02-17T03:59:12.554Z,8.50
2023-02-17T04:01:40.861Z,8.50
2023-02-17T04:04:09.331Z,8.63
2023-02-17T04:06:38.213Z,8.59
2023-02-17T04:09:07.763Z,8.61
2023-02-17T04:11:35.991Z,8.69
2023-02-17T04:14:04.146Z,8.66
2023-02-17T04:16:32.598Z,8.73
2023-02-17T04:19:00.649Z,8.71
2023-02-17T04:21:28.805Z,8.72
2023-02-17T04:23:57.347Z,8.72
2023-02-17T04:26:27.163Z,8.84
2023-02-17T04:28:55.401Z,8.79
2023-02-17T04:31:24.092Z,8.80
2023-02-17T04:33:52.758Z,8.75
2023-02-17T04:36:20.914Z,8.73
2023-02-17T04:38:49.411Z,8.77
2023-02-17T04:41:18.424Z,8.72
2023-02-17T04:43:47.995Z,8.75
2023-02-17T04:46:16.531Z,8.78
2023-02-17T04:48:44.781Z,8.78
2023-02-17T04:51:12.838Z,8.77
2023-02-17T04:53:43.652Z,8.75
2023-02-17T04:56:11.807Z,8.78
2023-02-17T04:58:39.934Z,8.74
2023-02-17T05:01:09.452Z,8.80
2023-02-17T05:03:38.268Z,8.79
2023-02-17T05:06:07.937Z,8.78
2023-02-17T05:08:36.200Z,8.74
2023-02-17T05:11:04.372Z,8.72
2023-02-17T05:13:33.169Z,8.72
2023-02-17T05:16:01.419Z,8.71
2023-02-17T05:18:30.926Z,8.69
2023-02-17T05:20:59.237Z,8.73
2023-02-17T05:23:27.656Z,8.73
2023-02-17T05:25:56.454Z,8.84
2023-02-17T05:28:24.760Z,8.77
2023-02-17T05:30:52.970Z,8.78
2023-02-17T05:33:21.145Z,8.81
2023-02-17T05:35:50.673Z,8.87
2023-02-17T05:38:19.012Z,8.91
2023-02-17T05:40:47.230Z,8.96
2023-02-17T05:43:17.581Z,8.95
2023-02-17T05:45:45.994Z,8.92
2023-02-17T05:48:14.367Z,8.92
2023-02-17T05:50:45.415Z,8.90
2023-02-17T05:53:15.500Z,8.89
2023-02-17T05:55:43.861Z,8.89
2023-02-17T05:58:12.199Z,8.88
2023-02-17T06:00:40.551Z,8.87
2023-02-17T06:03:08.797Z,8.92
2023-02-17T06:05:37.193Z,8.90
2023-02-17T06:08:05.634Z,8.91
2023-02-17T06:10:35.200Z,8.94
2023-02-17T06:13:03.473Z,9.06
2023-02-17T06:15:31.554Z,9.00
2023-02-17T06:17:59.715Z,8.98
2023-02-17T06:20:27.994Z,8.99
2023-02-17T06:23:02.486Z,8.97
2023-02-17T06:25:35.316Z,9.06
2023-02-17T06:28:03.708Z,9.01
2023-02-17T06:30:32.475Z,8.96
2023-02-17T06:33:00.890Z,9.01
2023-02-17T06:35:29.236Z,9.01
2023-02-17T06:37:57.480Z,8.98
2023-02-17T06:40:27.527Z,8.92
2023-02-17T06:42:58.612Z,8.94
2023-02-17T06:45:26.990Z,9.01
2023-02-17T06:47:55.326Z,8.98
2023-02-17T06:50:26.110Z,8.99
2023-02-17T06:52:54.335Z,8.96
2023-02-17T06:55:22.408Z,8.94
2023-02-17T06:57:50.582Z,8.94
2023-02-17T07:00:21.893Z,8.95
2023-02-17T07:02:54.167Z,8.94
2023-02-17T07:05:24.503Z,8.95
2023-02-17T07:07:53.605Z,8.93
2023-02-17T07:10:21.720Z,8.90
2023-02-17T07:12:49.839Z,8.94
2023-02-17T07:15:18.298Z,8.92
2023-02-17T07:17:47.791Z,8.94
2023-02-17T07:20:16.060Z,8.95
2023-02-17T07:22:44.231Z,8.95
2023-02-17T07:25:12.872Z,8.93
2023-02-17T07:27:40.945Z,8.94
2023-02-17T07:30:10.152Z,8.97
2023-02-17T07:32:38.896Z,8.96
2023-02-17T07:35:08.968Z,8.96
2023-02-17T07:37:40.623Z,8.97
2023-02-17T07:40:09.456Z,8.95
2023-02-17T07:42:37.831Z,9.03
2023-02-17T07:45:07.239Z,8.97
2023-02-17T07:47:35.424Z,8.94
2023-02-17T07:50:03.740Z,8.93
2023-02-17T07:52:33.252Z,8.90
2023-02-17T07:55:01.683Z,8.97
2023-02-17T07:57:31.007Z,8.98
2023-02-17T07:59:59.176Z,8.94
2023-02-17T08:02:27.780Z,8.95
2023-02-17T08:04:56.225Z,8.99
2023-02-17T08:07:27.688Z,9.02
2023-02-17T08:10:15.391Z,9.03
2023-02-17T08:13:01.254Z,9.02
2023-02-17T08:15:29.821Z,9.06
2023-02-17T08:17:58.578Z,9.05
2023-02-17T08:20:27.428Z,9.08
2023-02-17T08:22:55.887Z,9.09
2023-02-17T08:25:25.597Z,9.07
2023-02-17T08:27:54.474Z,9.18
2023-02-17T08:30:24.428Z,9.15
2023-02-17T08:32:55.189Z,9.07
2023-02-17T08:35:23.696Z,9.14
2023-02-17T08:37:51.965Z,9.20
2023-02-17T08:40:20.795Z,9.16
2023-02-17T08:42:50.491Z,9.15
2023-02-17T08:45:18.939Z,9.15
2023-02-17T08:47:50.916Z,9.16
2023-02-17T08:50:20.225Z,9.20
2023-02-17T08:52:48.499Z,9.29
2023-02-17T08:55:19.034Z,9.26
2023-02-17T08:57:47.562Z,9.28
2023-02-17T09:00:19.257Z,9.34
2023-02-17T09:02:47.514Z,9.36
2023-02-17T09:05:16.396Z,9.36
2023-02-17T09:07:45.009Z,9.34
2023-02-17T09:10:14.649Z,9.39
2023-02-17T09:12:42.783Z,9.39
2023-02-17T09:15:11.107Z,9.34
2023-02-17T09:17:42.248Z,9.37
2023-02-17T09:20:23.901Z,9.40
2023-02-17T09:22:53.412Z,9.34
2023-02-17T09:25:21.571Z,9.40
2023-02-17T09:27:50.829Z,9.29
2023-02-17T09:30:19.290Z,9.23
2023-02-17T09:32:48.845Z,9.26
2023-02-17T09:35:18.855Z,9.24
2023-02-17T09:37:47.369Z,9.25
2023-02-17T09:40:21.492Z,9.24
2023-02-17T09:42:50.226Z,9.37
2023-02-17T09:45:22.506Z,9.39
2023-02-17T09:47:56.113Z,9.31
2023-02-17T09:50:29.408Z,9.28
2023-02-17T09:53:02.478Z,9.29
2023-02-17T09:55:34.478Z,9.29
2023-02-17T09:58:07.539Z,9.31
2023-02-17T10:00:42.615Z,9.26
2023-02-17T10:03:18.448Z,9.23
2023-02-17T10:05:52.852Z,9.22
2023-02-17T10:08:27.107Z,9.23
2023-02-17T10:11:00.613Z,9.21
2023-02-17T10:13:35.409Z,9.22
2023-02-17T10:16:09.721Z,9.31
2023-02-17T10:18:45.947Z,9.32
2023-02-17T10:21:22.157Z,9.35
2023-02-17T10:23:52.204Z,9.40
2023-02-17T10:26:31.211Z,9.40
2023-02-17T10:29:06.287Z,9.44
2023-02-17T10:31:45.669Z,9.48
2023-02-17T10:34:27.790Z,9.49
2023-02-17T10:37:00.310Z,9.49
2023-02-17T10:39:47.588Z,9.56
2023-02-17T10:42:21.627Z,9.68
2023-02-17T10:44:52.130Z,9.74
2023-02-17T10:47:22.588Z,9.79
2023-02-17T10:49:56.742Z,9.78
2023-02-17T10:52:33.522Z,9.83
2023-02-17T10:55:21.911Z,9.82
2023-02-17T10:57:58.273Z,9.84
2023-02-17T11:00:27.306Z,9.87
2023-02-17T11:02:55.529Z,9.87
2023-02-17T11:05:28.937Z,9.92
2023-02-17T11:08:01.744Z,9.92
2023-02-17T11:10:32.732Z,9.99
2023-02-17T11:13:03.543Z,10.02
2023-02-17T11:15:38.395Z,9.98
2023-02-17T11:18:12.636Z,10.03
2023-02-17T11:20:43.140Z,10.14
2023-02-17T11:23:26.876Z,10.12
2023-02-17T11:26:02.233Z,10.06
2023-02-17T11:28:30.731Z,10.11
2023-02-17T11:31:02.634Z,10.06
2023-02-17T11:33:35.890Z,10.06
2023-02-17T11:36:08.570Z,10.03
2023-02-17T11:38:45.226Z,10.10
2023-02-17T11:41:13.581Z,10.13
2023-02-17T11:43:54.038Z,10.16
2023-02-17T11:46:32.749Z,10.20
2023-02-17T11:49:21.745Z,10.33
2023-02-17T11:52:00.587Z,10.37
2023-02-17T11:54:37.422Z,10.49
2023-02-17T11:57:23.459Z,10.80
2023-02-17T12:00:05.746Z,10.84
2023-02-17T12:03:20.779Z,11.03
2023-02-17T12:06:01.962Z,11.12
2023-02-17T12:08:45.792Z,11.40
2023-02-17T12:11:23.713Z,11.46
2023-02-17T12:14:15.927Z,11.54
2023-02-17T12:16:52.942Z,11.72
2023-02-17T12:19:41.262Z,11.72
2023-02-17T12:22:18.939Z,11.92
2023-02-17T12:25:20.566Z,11.99
2023-02-17T12:28:05.287Z,11.94
2023-02-17T12:30:46.259Z,12.01
2023-02-17T12:33:33.798Z,11.93
2023-02-17T12:36:04.913Z,12.13
2023-02-17T12:38:36.554Z,12.05
2023-02-17T12:41:09.036Z,12.08
2023-02-17T12:43:43.506Z,12.52
2023-02-17T12:46:15.536Z,12.65
2023-02-17T12:48:50.305Z,12.93
2023-02-17T12:51:24.290Z,13.16
2023-02-17T12:53:56.655Z,13.20
2023-02-17T12:56:51.736Z,13.51
2023-02-17T12:59:27.589Z,13.43
2023-02-17T13:02:00.519Z,13.51
2023-02-17T13:04:30.867Z,13.42
2023-02-17T13:07:19.111Z,13.03
2023-02-17T13:09:52.029Z,13.05
2023-02-17T13:12:44.559Z,12.94
2023-02-17T13:15:32.015Z,12.90
2023-02-17T13:18:03.569Z,12.89
2023-02-17T13:20:46.021Z,12.95
2023-02-17T13:23:27.330Z,12.81
2023-02-17T13:26:09.128Z,12.84
2023-02-17T13:28:40.222Z,12.75
2023-02-17T13:31:17.059Z,12.71
2023-02-17T13:33:49.501Z,12.67
2023-02-17T13:36:23.256Z,12.67
2023-02-17T13:39:01.408Z,12.56
2023-02-17T13:41:35.942Z,12.45
2023-02-17T13:44:27.042Z,12.34
2023-02-17T13:47:00.749Z,12.31
2023-02-17T13:49:33.409Z,12.24
2023-02-17T13:52:10.419Z,12.29
2023-02-17T13:54:39.171Z,12.20
2023-02-17T13:57:07.400Z,12.16
2023-02-17T13:59:38.074Z,12.27
2023-02-17T14:02:35.183Z,12.23
2023-02-17T14:05:17.581Z,12.24
2023-02-17T14:07:48.599Z,12.26
2023-02-17T14:10:23.550Z,12.23
2023-02-17T14:12:56.407Z,12.22
2023-02-17T14:15:27.811Z,12.27
2023-02-17T14:17:58.228Z,12.32
2023-02-17T14:20:35.430Z,12.24
2023-02-17T14:23:06.680Z,12.19
2023-02-17T14:25:38.274Z,12.15
2023-02-17T14:28:19.818Z,11.98
2023-02-17T14:30:49.013Z,12.01
2023-02-17T14:33:24.440Z,11.98
2023-02-17T14:35:55.792Z,11.97
2023-02-17T14:38:27.718Z,11.97
2023-02-17T14:40:57.922Z,11.99
2023-02-17T14:43:27.083Z,11.90
2023-02-17T14:45:55.510Z,11.95
2023-02-17T14:48:27.682Z,11.96
2023-02-17T14:50:58.346Z,11.86
2023-02-17T14:53:29.753Z,11.79
2023-02-17T14:56:01.829Z,11.93
2023-02-17T14:58:31.340Z,11.96
2023-02-17T15:01:02.391Z,12.08
2023-02-17T15:03:34.240Z,11.85
2023-02-17T15:06:03.122Z,11.88
2023-02-17T15:08:35.246Z,11.79
2023-02-17T15:11:03.929Z,11.80
2023-02-17T15:13:32.597Z,11.76
2023-02-17T15:16:01.216Z,11.71
2023-02-17T15:18:29.849Z,11.71
2023-02-17T15:20:59.693Z,11.79
2023-02-17T15:23:34.491Z,11.74
2023-02-17T15:26:02.799Z,11.86
2023-02-17T15:28:31.291Z,11.88
2023-02-17T15:30:59.908Z,11.88
2023-02-17T15:33:28.458Z,11.87
2023-02-17T15:35:59.191Z,11.92
2023-02-17T15:38:27.548Z,11.94
2023-02-17T15:40:58.675Z,11.92
2023-02-17T15:46:12.332Z,11.81
2023-02-17T15:48:40.989Z,11.78
2023-02-17T15:51:14.998Z,11.77
2023-02-17T15:53:43.888Z,11.76
2023-02-17T15:56:14.827Z,11.81
2023-02-17T15:58:43.653Z,11.88
2023-02-17T16:01:19.790Z,11.84
2023-02-17T16:03:50.877Z,11.89
2023-02-17T16:06:20.639Z,11.74
2023-02-17T16:08:48.720Z,11.75
2023-02-17T16:11:18.615Z,11.79
2023-02-17T16:13:47.926Z,11.74
2023-02-17T16:16:18.981Z,11.68
2023-02-17T16:18:48.081Z,11.68
2023-02-17T16:21:17.271Z,11.65
2023-02-17T16:23:47.674Z,11.63
2023-02-17T16:26:29.626Z,11.61
2023-02-17T16:28:59.202Z,11.63
2023-02-17T16:31:28.251Z,11.70
2023-02-17T16:34:00.252Z,11.59
2023-02-17T16:36:33.696Z,11.60
2023-02-17T16:39:11.879Z,11.65
2023-02-17T16:41:41.886Z,11.57
2023-02-17T16:44:13.435Z,11.76
2023-02-17T16:46:47.985Z,11.66
2023-02-17T16:49:22.316Z,11.68
2023-02-17T16:51:53.273Z,11.56
2023-02-17T16:54:23.521Z,11.63
2023-02-17T16:56:53.795Z,11.55
2023-02-17T16:59:25.784Z,11.53
2023-02-17T17:01:55.278Z,11.47
2023-02-17T17:04:24.589Z,11.59
2023-02-17T17:06:53.635Z,11.61
2023-02-17T17:09:25.209Z,11.54
2023-02-17T17:11:53.639Z,11.46
2023-02-17T17:14:22.573Z,11.60
2023-02-17T17:16:55.806Z,11.50
2023-02-17T17:19:24.559Z,11.49
2023-02-17T17:21:53.121Z,11.59
2023-02-17T17:24:23.229Z,11.54
2023-02-17T17:26:52.904Z,11.53
2023-02-17T17:29:21.564Z,11.52
2023-02-17T17:31:50.090Z,11.55
2023-02-17T17:34:19.329Z,11.65
2023-02-17T17:36:49.124Z,11.52
2023-02-17T17:39:19.690Z,11.38
2023-02-17T17:41:50.302Z,11.34
2023-02-17T17:44:19.175Z,11.35
2023-02-17T17:46:48.085Z,11.17
2023-02-17T17:49:18.483Z,11.13
2023-02-17T17:51:47.189Z,11.17
2023-02-17T17:54:15.552Z,11.21
2023-02-17T17:56:44.891Z,11.26
2023-02-17T17:59:15.462Z,11.46
2023-02-17T18:01:45.853Z,11.43
2023-02-17T18:04:14.753Z,11.37
2023-02-17T18:06:45.407Z,11.38
2023-02-17T18:09:30.794Z,11.45
2023-02-17T18:12:02.981Z,11.38
2023-02-17T18:14:33.304Z,11.42
2023-02-17T18:17:01.922Z,11.37
2023-02-17T18:19:31.802Z,11.39
2023-02-17T18:22:00.549Z,11.51
2023-02-17T18:24:29.001Z,11.44
2023-02-17T18:26:57.347Z,11.52
2023-02-17T18:29:25.944Z,11.45
2023-02-17T18:31:55.758Z,11.53
2023-02-17T18:34:24.674Z,11.50
2023-02-17T18:36:53.124Z,11.57
2023-02-17T18:39:21.400Z,11.50
2023-02-17T18:41:50.044Z,11.46
2023-02-17T18:44:18.543Z,11.55
2023-02-17T18:46:46.949Z,11.62
2023-02-17T18:49:18.102Z,11.77
2023-02-17T18:51:46.550Z,11.69
2023-02-17T18:54:15.266Z,11.69
2023-02-17T18:56:44.354Z,11.65
2023-02-17T18:59:12.789Z,11.58
2023-02-17T19:01:43.198Z,11.70
2023-02-17T19:04:12.989Z,11.65
2023-02-17T19:06:42.442Z,11.68
2023-02-17T19:09:10.653Z,11.57
2023-02-17T19:11:39.403Z,11.55
2023-02-17T19:14:07.968Z,11.57
2023-02-17T19:16:36.141Z,11.72
2023-02-17T19:19:05.540Z,11.63
2023-02-17T19:21:36.298Z,11.58
2023-02-17T19:24:06.393Z,11.57
2023-02-17T19:26:35.200Z,11.65
2023-02-17T19:29:03.576Z,11.63
2023-02-17T19:31:32.008Z,11.65
2023-02-17T19:34:00.378Z,11.58
2023-02-17T19:36:28.639Z,11.70
2023-02-17T19:38:58.305Z,11.72
2023-02-17T19:41:28.490Z,11.69
2023-02-17T19:43:57.094Z,11.77
2023-02-17T19:46:25.851Z,11.63
2023-02-17T19:48:54.293Z,11.60
2023-02-17T19:51:23.027Z,11.56
2023-02-17T19:53:51.507Z,11.74
2023-02-17T19:56:21.824Z,11.88
2023-02-17T19:58:51.870Z,11.91
2023-02-17T20:01:22.921Z,11.87
2023-02-17T20:03:53.923Z,11.90
2023-02-17T20:06:24.997Z,11.97
2023-02-17T20:08:55.609Z,11.87
2023-02-17T20:11:24.136Z,11.80
2023-02-17T20:13:54.995Z,11.85
2023-02-17T20:16:23.255Z,11.76
2023-02-17T20:18:52.793Z,11.79
2023-02-17T20:21:23.152Z,11.70
2023-02-17T20:23:51.909Z,11.80
2023-02-17T20:26:22.006Z,11.70
2023-02-17T20:28:51.158Z,11.67
2023-02-17T20:31:21.584Z,11.69
2023-02-17T20:33:49.915Z,11.69
2023-02-17T20:36:18.715Z,11.71
2023-02-17T20:38:47.879Z,11.71
2023-02-17T20:41:20.570Z,11.65
2023-02-17T20:43:50.303Z,11.68
2023-02-17T20:46:24.841Z,11.71
2023-02-17T20:48:53.570Z,11.62
2023-02-17T20:51:22.519Z,11.63
2023-02-17T20:53:51.220Z,11.66
2023-02-17T20:56:22.846Z,11.67
2023-02-17T20:58:52.001Z,11.67
2023-02-17T21:01:21.913Z,11.68
2023-02-17T21:03:50.701Z,11.64
2023-02-17T21:06:23.280Z,11.67
2023-02-17T21:08:53.843Z,11.66
2023-02-17T21:11:22.703Z,11.70
2023-02-17T21:13:51.085Z,11.64
2023-02-17T21:16:24.341Z,11.63
2023-02-17T21:18:53.022Z,11.62
2023-02-17T21:21:21.865Z,11.67
2023-02-17T21:23:50.186Z,11.72
2023-02-17T21:26:18.895Z,11.72
2023-02-17T21:28:47.745Z,11.73
2023-02-17T21:31:16.552Z,11.63
2023-02-17T21:33:46.761Z,11.74
2023-02-17T21:36:18.147Z,11.74
2023-02-17T21:38:47.364Z,11.67
2023-02-17T21:41:18.266Z,11.71
2023-02-17T21:44:04.006Z,11.68
2023-02-17T21:46:33.027Z,11.71
2023-02-17T21:49:03.382Z,11.65
2023-02-17T21:51:32.807Z,11.69
2023-02-17T21:54:01.358Z,11.72
2023-02-17T21:56:29.852Z,11.71
2023-02-17T21:58:58.309Z,11.65
2023-02-17T22:01:29.142Z,11.62
2023-02-17T22:03:58.601Z,11.59
2023-02-17T22:06:30.578Z,11.53
2023-02-17T22:09:00.055Z,11.58
2023-02-17T22:11:31.091Z,11.65
2023-02-17T22:14:00.975Z,11.63
2023-02-17T22:16:31.734Z,11.61
2023-02-17T22:19:00.396Z,11.66
2023-02-17T22:21:30.346Z,11.62
2023-02-17T22:23:59.651Z,11.59
2023-02-17T22:26:30.196Z,11.56
2023-02-17T22:28:58.859Z,11.64
2023-02-17T22:31:29.451Z,11.58
2023-02-17T22:33:59.524Z,11.47
2023-02-17T22:36:28.385Z,11.58
2023-02-17T22:38:58.032Z,11.57
2023-02-17T22:41:26.731Z,11.59
2023-02-17T22:43:55.858Z,11.66
2023-02-17T22:46:27.185Z,11.72
2023-02-17T22:48:57.430Z,11.82
2023-02-17T22:51:29.262Z,11.63
2023-02-17T22:54:00.750Z,11.67
2023-02-17T22:56:30.015Z,11.60
2023-02-17T22:59:00.963Z,11.64
2023-02-17T23:01:31.203Z,11.54
2023-02-17T23:04:00.633Z,11.54
2023-02-17T23:06:31.600Z,11.59
2023-02-17T23:09:02.234Z,11.52
2023-02-17T23:11:55.902Z,11.47
2023-02-17T23:14:27.094Z,11.55
2023-02-17T23:16:58.981Z,11.46
2023-02-17T23:19:28.564Z,11.46
2023-02-17T23:22:00.309Z,11.55
2023-02-17T23:24:30.652Z,11.47
2023-02-17T23:27:03.261Z,11.54
2023-02-17T23:29:32.838Z,11.53
2023-02-17T23:32:01.124Z,11.58
2023-02-17T23:34:29.477Z,11.60
2023-02-17T23:36:58.026Z,11.51
2023-02-17T23:39:26.861Z,11.46
2023-02-17T23:41:56.839Z,11.58
2023-02-17T23:44:25.750Z,11.58
2023-02-17T23:46:54.026Z,11.48
2023-02-17T23:49:22.269Z,11.40
2023-02-17T23:51:50.735Z,11.38
2023-02-17T23:54:19.368Z,11.33
2023-02-17T23:56:47.514Z,11.32
2023-02-17T23:59:19.374Z,11.32
